Time;durP1;ratioP1;P1;durP2;ratioP2;P2;SDS_P1;SDS_P2;PMS_P1;PMS_P2;Temp;Humidity;BMP_temperature;BMP_pressure;BME280_temperature;BME280_humidity;BME280_pressure;Samples;Min_cycle;Max_cycle;Signal;HPM_P1;HPM_P2
2022/01/25 00:26:36;;;;;;;14.63;9.95;;;20.20;52.60;;;;;;5054679;28;20060;-71
2022/01/25 00:29:09;;;;;;;15.65;10.52;;;20.10;52.70;;;;;;5059337;28;20037;-71
2022/01/25 00:31:39;;;;;;;14.65;10.40;;;20.30;52.70;;;;;;5059036;28;20048;-71
2022/01/25 00:34:06;;;;;;;15.07;9.93;;;20.30;52.50;;;;;;5059459;28;20041;-71
2022/01/25 00:36:33;;;;;;;15.57;9.07;;;20.30;52.50;;;;;;5059607;28;20060;-70
2022/01/25 00:39:00;;;;;;;13.43;9.75;;;20.30;52.40;;;;;;5058245;28;20037;-71
2022/01/25 00:41:26;;;;;;;16.55;9.85;;;20.30;52.30;;;;;;5059629;28;20049;-71
2022/01/25 00:43:53;;;;;;;16.17;9.85;;;20.40;52.30;;;;;;5059292;28;20065;-71
2022/01/25 00:46:21;;;;;;;14.50;9.10;;;20.30;52.30;;;;;;5058927;28;20076;-71
2022/01/25 00:48:52;;;;;;;17.25;10.05;;;20.40;52.20;;;;;;5059243;28;20067;-71
2022/01/25 00:51:36;;;;;;;15.18;9.32;;;20.30;52.20;;;;;;5059091;28;20022;-71
2022/01/25 00:54:12;;;;;;;14.55;9.70;;;20.30;52.30;;;;;;5059140;28;20076;-71
2022/01/25 00:56:45;;;;;;;16.63;9.73;;;20.10;52.20;;;;;;5059222;28;20043;-71
2022/01/25 00:59:18;;;;;;;18.80;10.90;;;20.20;52.30;;;;;;5059138;28;20088;-71
2022/01/25 01:01:48;;;;;;;15.07;9.48;;;20.10;52.30;;;;;;5058863;28;20056;-71
2022/01/25 01:04:15;;;;;;;14.00;7.93;;;20.10;52.40;;;;;;5059271;28;20033;-71
2022/01/25 01:06:43;;;;;;;15.02;9.20;;;20.10;52.80;;;;;;5059111;28;20045;-71
2022/01/25 01:09:11;;;;;;;16.88;10.32;;;20.20;52.00;;;;;;5058838;28;20080;-71
2022/01/25 01:11:46;;;;;;;19.98;11.15;;;20.10;52.00;;;;;;5059050;28;20084;-71
2022/01/25 01:43:39;;;;;;;21.27;11.52;;;20.10;51.80;;;;;;5057999;28;20052;-71
2022/01/25 01:48:57;;;;;;;18.23;11.45;;;20.00;51.40;;;;;;5057605;28;20479;-71
2022/01/25 01:53:53;;;;;;;14.43;9.93;;;19.90;51.60;;;;;;5058175;28;20042;-71
2022/01/25 01:56:20;;;;;;;17.45;10.50;;;20.00;51.60;;;;;;5057957;28;20041;-71
2022/01/25 01:58:46;;;;;;;18.65;11.05;;;20.00;51.60;;;;;;5057852;28;20041;-71
2022/01/25 02:01:16;;;;;;;16.20;10.63;;;19.70;51.70;;;;;;5057265;28;20128;-72
2022/01/25 02:03:43;;;;;;;16.80;11.45;;;19.70;51.70;;;;;;5058093;28;20049;-71
2022/01/25 02:06:10;;;;;;;19.40;11.25;;;19.80;51.60;;;;;;5057936;28;20061;-71
2022/01/25 02:08:36;;;;;;;16.13;11.05;;;19.80;51.40;;;;;;5057241;28;20066;-71
2022/01/25 02:11:04;;;;;;;19.98;12.02;;;19.70;51.40;;;;;;5057716;28;20038;-71
2022/01/25 02:13:30;;;;;;;19.77;11.27;;;19.70;51.40;;;;;;5057618;28;20045;-70
2022/01/25 02:15:59;;;;;;;17.75;11.43;;;19.60;51.20;;;;;;5057073;28;20133;-71
2022/01/25 02:23:38;;;;;;;20.67;11.35;;;19.60;51.30;;;;;;5056725;28;20053;-70
2022/01/25 02:26:07;;;;;;;19.83;11.55;;;19.50;51.30;;;;;;5057249;28;20045;-70
2022/01/25 02:28:36;;;;;;;17.65;11.10;;;19.50;51.30;;;;;;5056815;28;20033;-71
2022/01/25 02:31:04;;;;;;;19.13;11.10;;;19.50;51.20;;;;;;5057222;28;20042;-71
2022/01/25 02:33:31;;;;;;;18.67;11.00;;;19.60;51.20;;;;;;5057334;28;20061;-71
2022/01/25 02:35:59;;;;;;;19.48;11.48;;;19.60;51.00;;;;;;5057374;28;20041;-71
2022/01/25 02:38:29;;;;;;;19.52;11.25;;;19.60;51.00;;;;;;5057168;28;20045;-71
2022/01/25 02:40:58;;;;;;;18.45;11.38;;;19.50;50.90;;;;;;5057421;28;20046;-70
2022/01/25 02:43:25;;;;;;;19.58;11.13;;;19.50;50.90;;;;;;5056859;28;20047;-71
2022/01/25 02:48:55;;;;;;;22.48;12.15;;;19.50;50.80;;;;;;5013584;28;20045;-70
2022/01/25 02:51:25;;;;;;;22.40;12.65;;;19.50;50.60;;;;;;5056953;28;20044;-70
2022/01/25 02:53:51;;;;;;;17.95;11.30;;;19.50;50.60;;;;;;5057225;28;20064;-71
2022/01/25 02:56:18;;;;;;;19.02;12.13;;;19.60;50.50;;;;;;5056804;28;20049;-71
2022/01/25 02:58:45;;;;;;;19.92;11.18;;;19.50;50.40;;;;;;5056629;28;20041;-71
2022/01/25 03:01:11;;;;;;;16.65;11.35;;;19.70;50.50;;;;;;5056357;28;20104;-71
2022/01/25 03:03:38;;;;;;;17.65;11.68;;;19.60;50.40;;;;;;5056322;28;20053;-71
2022/01/25 03:06:05;;;;;;;19.10;12.43;;;19.70;50.30;;;;;;5056678;28;20038;-71
2022/01/25 03:08:31;;;;;;;20.40;11.38;;;19.60;50.10;;;;;;5056530;28;20061;-70
2022/01/25 03:11:18;;;;;;;16.50;10.52;;;19.60;50.00;;;;;;5056797;28;20044;-70
2022/01/25 03:14:08;;;;;;;14.95;10.23;;;19.70;50.20;;;;;;5055926;28;20036;-71
2022/01/25 03:16:52;;;;;;;16.85;10.30;;;19.80;50.00;;;;;;5055964;28;20049;-70
2022/01/25 03:25:04;;;;;;;22.60;10.70;;;19.60;49.70;;;;;;5035813;28;20046;-70
2022/01/25 03:27:30;;;;;;;17.95;10.38;;;19.60;49.90;;;;;;5055934;28;20064;-70
2022/01/25 03:29:56;;;;;;;18.08;11.05;;;19.60;50.20;;;;;;5055660;28;20057;-71
2022/01/25 03:32:23;;;;;;;18.02;10.95;;;19.60;50.00;;;;;;5055628;28;20038;-71
2022/01/25 03:34:49;;;;;;;16.42;10.60;;;19.60;50.10;;;;;;5055702;28;20489;-70
2022/01/25 03:37:15;;;;;;;17.98;11.10;;;19.50;50.40;;;;;;5056334;28;20056;-71
2022/01/25 03:39:41;;;;;;;20.20;11.77;;;19.60;50.40;;;;;;5056276;28;20049;-71
2022/01/25 03:42:10;;;;;;;20.60;11.27;;;19.50;50.50;;;;;;5056305;28;20033;-70
2022/01/25 03:44:36;;;;;;;22.15;12.85;;;19.60;50.40;;;;;;5038814;28;20113;-70
2022/01/25 03:47:08;;;;;;;14.52;9.15;;;19.60;50.20;;;;;;5038558;28;20053;-70
2022/01/25 03:49:51;;;;;;;17.92;11.80;;;19.50;50.50;;;;;;5056096;28;20124;-70
2022/01/25 03:52:27;;;;;;;21.23;11.80;;;19.60;50.00;;;;;;5056029;28;20061;-71
2022/01/25 03:54:54;;;;;;;16.80;10.65;;;19.60;50.20;;;;;;5062350;28;20042;-71
2022/01/25 03:57:21;;;;;;;17.52;11.38;;;19.50;50.30;;;;;;5062850;28;20045;-71
2022/01/25 03:59:47;;;;;;;18.65;10.57;;;19.40;50.30;;;;;;5062412;28;20072;-71
2022/01/25 04:02:14;;;;;;;19.55;11.45;;;19.50;50.40;;;;;;5062200;28;20033;-71
2022/01/25 04:04:41;;;;;;;15.18;10.32;;;19.50;50.30;;;;;;5062400;28;20077;-70
2022/01/25 04:07:12;;;;;;;24.40;12.13;;;19.50;50.30;;;;;;5062639;28;20453;-71
2022/01/25 04:09:39;;;;;;;17.95;10.98;;;19.60;50.30;;;;;;5062328;28;20080;-71
2022/01/25 04:12:07;;;;;;;17.23;10.93;;;19.60;50.30;;;;;;5062347;28;20029;-71
2022/01/25 04:14:33;;;;;;;16.25;11.38;;;19.50;50.30;;;;;;5062335;28;20053;-71
2022/01/25 04:17:05;;;;;;;19.65;11.73;;;19.60;50.20;;;;;;5062143;28;20041;-71
2022/01/25 04:19:36;;;;;;;17.77;10.45;;;19.50;50.10;;;;;;5062480;28;20044;-71
2022/01/25 04:27:35;;;;;;;17.10;10.88;;;19.50;50.00;;;;;;5062363;28;20114;-71
2022/01/25 04:30:03;;;;;;;21.08;10.93;;;19.50;49.80;;;;;;5062148;28;20101;-71
2022/01/25 04:32:35;;;;;;;17.27;10.18;;;19.60;49.90;;;;;;5062337;28;20038;-71
2022/01/25 04:35:12;;;;;;;20.58;11.50;;;19.80;49.50;;;;;;5062284;28;20042;-71
2022/01/25 04:49:04;;;;;;;19.80;11.55;;;20.00;49.50;;;;;;5062335;28;20064;-71
2022/01/25 04:52:37;;;;;;;16.92;10.45;;;20.00;49.40;;;;;;5062223;28;20053;-71
2022/01/25 04:57:12;;;;;;;20.02;12.65;;;20.00;49.60;;;;;;5062074;28;20044;-71
2022/01/25 04:59:46;;;;;;;25.10;12.23;;;19.80;49.50;;;;;;5061625;28;20041;-70
2022/01/25 05:02:19;;;;;;;20.02;12.10;;;19.90;49.70;;;;;;5058984;28;20037;-71
2022/01/25 05:04:52;;;;;;;18.33;11.80;;;19.70;49.50;;;;;;5058649;28;20056;-71
2022/01/25 05:07:30;;;;;;;20.75;12.55;;;19.80;49.60;;;;;;5058165;28;20050;-70
2022/01/25 05:09:58;;;;;;;17.90;11.18;;;19.80;49.50;;;;;;5058060;28;20057;-70
2022/01/25 05:18:22;;;;;;;16.55;10.70;;;20.00;49.30;;;;;;5008187;28;20073;-70
2022/01/25 05:23:36;;;;;;;22.20;11.73;;;20.00;48.90;;;;;;5051879;28;20093;-71
2022/01/25 05:26:02;;;;;;;19.60;11.02;;;20.10;48.80;;;;;;5038012;28;20475;-71
2022/01/25 05:28:28;;;;;;;16.42;10.75;;;20.20;48.40;;;;;;5038266;28;20041;-71
2022/01/25 05:30:54;;;;;;;21.58;12.75;;;20.10;48.70;;;;;;5046267;28;20084;-70
2022/01/25 05:33:20;;;;;;;19.50;12.43;;;20.00;48.80;;;;;;5057190;28;20041;-71
2022/01/25 05:35:47;;;;;;;20.17;12.88;;;19.90;48.90;;;;;;5057800;28;20112;-71
2022/01/25 05:38:13;;;;;;;20.13;12.23;;;20.00;49.20;;;;;;5040851;28;20048;-71
2022/01/25 05:40:49;;;;;;;20.60;11.73;;;19.80;49.50;;;;;;5057619;28;20046;-71
2022/01/25 05:48:22;;;;;;;17.70;12.05;;;19.80;49.60;;;;;;5049383;28;20584;-71
2022/01/25 05:50:48;;;;;;;22.08;11.65;;;19.70;49.50;;;;;;5021523;28;20028;-70
2022/01/25 05:53:14;;;;;;;22.13;12.40;;;19.70;49.50;;;;;;5040331;28;20050;-71
2022/01/25 05:55:40;;;;;;;19.98;11.85;;;19.70;49.30;;;;;;5057609;28;20049;-71
2022/01/25 05:58:06;;;;;;;21.45;12.75;;;19.60;49.20;;;;;;5057363;28;20050;-71
2022/01/25 06:00:32;;;;;;;18.23;13.02;;;19.80;49.10;;;;;;5057100;28;20089;-70
2022/01/25 06:02:58;;;;;;;22.17;12.57;;;19.60;49.10;;;;;;5055149;28;20052;-70
2022/01/25 06:05:25;;;;;;;23.08;11.38;;;19.90;49.10;;;;;;5053746;28;20097;-72
2022/01/25 06:07:51;;;;;;;22.27;13.05;;;19.80;48.50;;;;;;5052358;28;20052;-70
2022/01/25 06:10:17;;;;;;;21.92;12.50;;;19.80;49.20;;;;;;5046139;28;20037;-69
2022/01/25 06:12:44;;;;;;;23.35;12.23;;;19.90;50.60;;;;;;5048484;28;20041;-69
2022/01/25 06:15:12;;;;;;;23.38;12.52;;;20.00;58.20;;;;;;5048370;28;20048;-70
2022/01/25 06:17:39;;;;;;;23.35;12.38;;;20.20;59.10;;;;;;5047961;28;20064;-70
2022/01/25 06:20:06;;;;;;;22.30;12.88;;;20.40;59.50;;;;;;5048543;28;20053;-70
2022/01/25 06:22:33;;;;;;;15.75;9.85;;;20.60;59.10;;;;;;5050819;28;20042;-70
2022/01/25 06:24:59;;;;;;;10.85;7.25;;;20.70;55.70;;;;;;5050557;28;20029;-71
2022/01/25 06:27:26;;;;;;;18.35;11.70;;;20.60;43.90;;;;;;5050290;28;20042;-71
2022/01/25 06:29:52;;;;;;;13.63;8.77;;;20.60;40.90;;;;;;5054157;28;20041;-70
2022/01/25 06:32:19;;;;;;;8.80;5.75;;;20.60;36.20;;;;;;5048157;28;20127;-70
2022/01/25 06:34:46;;;;;;;15.32;9.40;;;20.80;36.30;;;;;;5047599;28;20068;-71
2022/01/25 06:37:13;;;;;;;14.02;7.13;;;20.80;35.00;;;;;;5047294;28;20097;-70
2022/01/25 06:39:40;;;;;;;18.20;11.80;;;20.90;33.50;;;;;;5051526;28;20101;-69
2022/01/25 06:42:08;;;;;;;10.95;6.22;;;20.80;32.90;;;;;;5053172;28;20048;-70
2022/01/25 06:44:35;;;;;;;12.13;8.55;;;20.80;32.30;;;;;;5041139;28;20072;-69
2022/01/25 06:47:03;;;;;;;11.32;7.43;;;20.80;34.40;;;;;;5055044;28;20048;-71
2022/01/25 06:49:30;;;;;;;19.20;11.18;;;20.90;33.10;;;;;;5055641;28;20080;-70
2022/01/25 06:51:56;;;;;;;22.17;12.27;;;21.00;47.40;;;;;;5055639;28;20047;-72
2022/01/25 06:54:22;;;;;;;18.88;13.07;;;21.20;52.30;;;;;;5056396;28;20049;-73
2022/01/25 06:56:48;;;;;;;19.75;12.77;;;21.20;52.50;;;;;;5053513;28;20061;-73
2022/01/25 06:59:15;;;;;;;18.58;10.48;;;21.00;53.80;;;;;;5054913;28;20045;-71
2022/01/25 07:01:41;;;;;;;19.73;13.32;;;20.90;54.50;;;;;;5055679;28;20079;-72
2022/01/25 07:04:07;;;;;;;22.55;11.52;;;20.70;55.00;;;;;;5051843;28;20051;-72
2022/01/25 07:06:34;;;;;;;17.23;11.52;;;20.70;56.50;;;;;;5043835;28;20549;-72
2022/01/25 07:09:02;;;;;;;23.30;13.10;;;20.70;59.40;;;;;;5054817;28;20046;-72
2022/01/25 07:11:29;;;;;;;20.88;12.48;;;20.70;60.50;;;;;;5051715;28;20045;-72
2022/01/25 07:13:56;;;;;;;19.08;11.85;;;20.60;58.80;;;;;;5035870;28;20034;-72
2022/01/25 07:16:24;;;;;;;17.23;11.80;;;20.50;59.30;;;;;;5045263;28;20065;-72
2022/01/25 07:18:50;;;;;;;18.48;12.05;;;20.40;59.20;;;;;;5048513;28;20065;-73
2022/01/25 07:21:16;;;;;;;16.48;10.23;;;20.40;60.50;;;;;;5046724;28;20049;-73
2022/01/25 07:23:42;;;;;;;17.17;11.65;;;20.40;61.50;;;;;;5049338;28;20052;-71
2022/01/25 07:26:09;;;;;;;15.32;8.23;;;20.50;60.30;;;;;;5048807;28;20037;-72
2022/01/25 07:28:36;;;;;;;13.52;9.98;;;20.40;61.10;;;;;;5049143;28;20069;-72
2022/01/25 07:31:03;;;;;;;14.90;8.63;;;20.50;60.70;;;;;;5050435;28;20070;-74
2022/01/25 07:33:29;;;;;;;16.23;10.23;;;20.40;61.70;;;;;;5048052;28;20097;-73
2022/01/25 07:35:57;;;;;;;14.30;9.60;;;20.40;60.90;;;;;;5052929;28;20045;-72
2022/01/25 07:38:23;;;;;;;15.55;10.48;;;20.50;61.00;;;;;;5052337;28;20109;-73
2022/01/25 07:40:49;;;;;;;13.30;9.48;;;20.50;60.80;;;;;;5054881;28;20049;-72
2022/01/25 07:43:16;;;;;;;17.58;10.32;;;20.50;60.90;;;;;;5054906;28;20071;-73
2022/01/25 07:45:42;;;;;;;15.75;9.90;;;20.40;61.30;;;;;;5054494;28;20049;-75
2022/01/25 07:48:11;;;;;;;15.15;10.10;;;20.40;61.30;;;;;;5054463;28;20101;-71
2022/01/25 07:50:38;;;;;;;17.15;10.00;;;20.30;61.40;;;;;;5055211;28;20037;-72
2022/01/25 07:53:04;;;;;;;18.25;10.55;;;20.30;61.80;;;;;;5048104;28;20037;-72
2022/01/25 07:55:31;;;;;;;17.90;9.93;;;20.20;61.30;;;;;;5053793;28;20045;-76
2022/01/25 07:57:57;;;;;;;17.15;11.95;;;20.10;61.50;;;;;;5053285;28;20048;-73
2022/01/25 08:00:23;;;;;;;18.83;12.40;;;20.30;61.50;;;;;;5045073;28;20053;-73
2022/01/25 08:02:51;;;;;;;17.90;11.45;;;20.20;61.40;;;;;;5054414;28;20071;-73
2022/01/25 08:05:20;;;;;;;15.02;10.50;;;20.20;61.50;;;;;;5047663;28;20103;-72
2022/01/25 08:07:46;;;;;;;18.15;11.18;;;20.20;63.60;;;;;;5057506;28;20136;-73
2022/01/25 08:10:13;;;;;;;14.82;10.25;;;20.20;61.70;;;;;;5050263;28;20068;-72
2022/01/25 08:12:39;;;;;;;18.35;11.00;;;20.20;61.00;;;;;;5046182;28;20045;-76
2022/01/25 08:15:07;;;;;;;7.72;3.97;;;20.10;60.50;;;;;;5054587;28;20044;-72
2022/01/25 08:17:34;;;;;;;9.02;4.88;;;20.20;49.10;;;;;;5047349;28;20033;-71
2022/01/25 08:20:01;;;;;;;8.05;5.05;;;20.40;44.60;;;;;;5053185;28;20104;-72
2022/01/25 08:22:27;;;;;;;11.07;6.90;;;20.60;38.30;;;;;;5050874;28;20052;-72
2022/01/25 08:24:54;;;;;;;11.75;6.65;;;20.80;37.30;;;;;;5051503;28;20045;-70
2022/01/25 08:27:22;;;;;;;8.93;5.88;;;20.80;38.00;;;;;;5045448;28;20152;-69
2022/01/25 08:29:50;;;;;;;13.18;7.05;;;21.00;35.50;;;;;;5048145;28;20040;-69
2022/01/25 08:32:16;;;;;;;9.75;6.18;;;21.00;36.20;;;;;;5051728;28;20051;-70
2022/01/25 08:34:42;;;;;;;19.40;13.70;;;21.00;34.20;;;;;;5042330;28;20041;-70
2022/01/25 08:37:09;;;;;;;14.07;8.60;;;20.80;34.30;;;;;;5042210;28;20046;-71
2022/01/25 08:39:35;;;;;;;10.65;6.18;;;20.90;35.40;;;;;;5044459;28;20048;-72
2022/01/25 08:42:03;;;;;;;8.02;4.60;;;20.90;35.40;;;;;;5054175;28;20181;-71
2022/01/25 08:44:29;;;;;;;1.10;1.10;;;21.20;50.80;;;;;;5047891;28;20272;-72
2022/01/25 08:46:56;;;;;;;7.18;3.97;;;21.50;50.30;;;;;;5051962;28;20034;-71
2022/01/25 08:49:22;;;;;;;2.17;1.85;;;21.60;47.30;;;;;;5051911;28;20052;-73
2022/01/25 08:51:49;;;;;;;4.22;2.60;;;21.60;44.90;;;;;;5050609;28;20038;-70
2022/01/25 08:54:16;;;;;;;6.15;4.05;;;21.70;43.20;;;;;;5042229;28;20069;-70
2022/01/25 08:56:43;;;;;;;18.15;12.50;;;21.80;42.00;;;;;;5048234;28;20037;-71
2022/01/25 08:59:11;;;;;;;18.13;11.75;;;21.80;39.40;;;;;;5039476;28;20030;-72
2022/01/25 09:01:56;;;;;;;18.27;11.88;;;21.60;40.70;;;;;;5037830;28;20045;-71
2022/01/25 09:04:23;;;;;;;17.02;11.48;;;21.50;41.80;;;;;;5038293;28;20164;-72
2022/01/25 09:06:50;;;;;;;23.48;12.43;;;21.20;43.10;;;;;;5038366;28;20030;-75
2022/01/25 09:09:16;;;;;;;20.25;13.98;;;21.10;44.10;;;;;;5021166;28;20049;-73
2022/01/25 09:11:43;;;;;;;23.15;14.07;;;20.90;45.00;;;;;;5038355;28;20041;-72
2022/01/25 09:14:09;;;;;;;20.98;13.88;;;20.80;45.80;;;;;;5038358;28;20046;-72
2022/01/25 09:16:37;;;;;;;21.83;13.75;;;20.70;46.70;;;;;;5038171;28;20113;-72
2022/01/25 09:19:04;;;;;;;20.38;14.15;;;20.60;48.30;;;;;;5037435;28;20045;-72
2022/01/25 09:21:30;;;;;;;23.75;14.57;;;20.60;48.20;;;;;;5038366;28;20068;-73
2022/01/25 09:23:56;;;;;;;19.63;13.15;;;20.50;48.80;;;;;;5054358;28;20053;-73
2022/01/25 09:26:24;;;;;;;21.23;14.88;;;20.30;49.80;;;;;;5057060;28;20045;-72
2022/01/25 09:28:53;;;;;;;19.95;13.50;;;20.50;49.90;;;;;;5058143;28;20071;-71
2022/01/25 09:31:20;;;;;;;73.95;30.55;;;20.40;50.40;;;;;;5057806;28;20101;-71
2022/01/25 09:33:46;;;;;;;18.88;11.88;;;20.30;42.00;;;;;;5057610;28;20041;-70
2022/01/25 09:36:13;;;;;;;16.35;10.73;;;20.50;40.30;;;;;;5057687;28;20045;-71
2022/01/25 09:38:39;;;;;;;15.27;9.85;;;20.60;37.20;;;;;;5050514;28;20088;-72
2022/01/25 09:41:05;;;;;;;10.68;7.38;;;20.70;36.50;;;;;;5038155;28;20042;-72
2022/01/25 09:43:31;;;;;;;18.42;11.43;;;20.70;37.10;;;;;;5037881;28;20050;-72
2022/01/25 09:45:58;;;;;;;19.20;11.30;;;20.90;47.90;;;;;;5047674;28;20101;-72
2022/01/25 09:48:24;;;;;;;19.30;12.35;;;20.90;50.90;;;;;;5057652;28;20034;-74
2022/01/25 09:50:51;;;;;;;19.75;11.65;;;20.80;51.60;;;;;;5055612;28;20048;-73
2022/01/25 09:53:17;;;;;;;17.10;10.75;;;20.90;51.90;;;;;;5049870;28;20046;-73
2022/01/25 09:55:46;;;;;;;19.55;11.63;;;20.80;52.10;;;;;;5045593;28;20037;-73
2022/01/25 09:58:13;;;;;;;13.90;9.32;;;20.70;52.20;;;;;;5053718;28;20045;-72
2022/01/25 10:00:42;;;;;;;13.80;7.93;;;20.70;50.50;;;;;;5055067;28;20057;-73
2022/01/25 10:03:16;;;;;;;12.32;8.18;;;20.80;37.30;;;;;;5055415;28;20062;-72
2022/01/25 10:05:45;;;;;;;11.82;8.85;;;21.10;35.90;;;;;;5061289;28;20065;-75
2022/01/25 10:08:26;;;;;;;16.70;12.48;;;21.20;37.10;;;;;;5064882;28;20065;-76
2022/01/25 10:11:10;;;;;;;18.15;11.05;;;21.20;33.40;;;;;;5039643;28;20541;-73
2022/01/25 10:13:50;;;;;;;13.18;6.95;;;21.30;33.80;;;;;;5048201;28;20050;-71
2022/01/25 10:16:30;;;;;;;11.60;7.35;;;21.40;34.10;;;;;;5048196;28;20045;-70
2022/01/25 10:19:05;;;;;;;17.00;10.95;;;21.40;34.70;;;;;;5049872;28;20048;-72
2022/01/25 10:21:31;;;;;;;10.48;7.15;;;21.50;35.00;;;;;;5045265;28;20049;-72
2022/01/25 10:24:17;;;;;;;21.20;12.75;;;21.40;32.20;;;;;;5051769;28;20125;-71
2022/01/25 10:27:04;;;;;;;11.05;7.47;;;21.40;32.60;;;;;;5055643;28;20084;-70
2022/01/25 10:29:35;;;;;;;11.95;7.57;;;21.30;33.30;;;;;;5053040;28;20052;-70
2022/01/25 10:32:12;;;;;;;15.30;11.20;;;21.30;31.30;;;;;;5056137;28;20048;-70
2022/01/25 10:34:44;;;;;;;14.43;7.13;;;21.20;30.70;;;;;;5056126;28;20071;-72
2022/01/25 10:37:15;;;;;;;11.30;7.70;;;21.30;30.60;;;;;;5045231;28;20095;-72
2022/01/25 10:39:47;;;;;;;16.73;10.70;;;21.30;32.80;;;;;;5039821;28;20068;-74
2022/01/25 10:42:31;;;;;;;13.45;8.65;;;21.30;31.80;;;;;;5055986;28;20057;-73
2022/01/25 10:45:04;;;;;;;11.85;9.00;;;21.30;29.40;;;;;;5048388;28;20049;-73
2022/01/25 10:47:40;;;;;;;;;;;21.10;29.20;;;;;;5044588;28;20034;-74
2022/01/25 10:50:21;;;;;;;12.55;8.32;;;21.10;29.30;;;;;;5052242;28;19920;-72
2022/01/25 10:53:15;;;;;;;15.95;8.65;;;21.10;31.00;;;;;;5045100;28;20051;-72
2022/01/25 10:55:43;;;;;;;;;;;21.10;32.00;;;;;;5054640;28;20041;-72
2022/01/25 10:58:10;;;;;;;19.55;11.05;;;21.10;45.60;;;;;;5037678;28;19916;-72
2022/01/25 11:00:42;;;;;;;18.83;12.07;;;21.30;48.00;;;;;;5054541;28;20052;-72
2022/01/25 11:03:09;;;;;;;18.45;11.52;;;21.50;49.10;;;;;;5047235;28;20045;-72
2022/01/25 11:05:38;;;;;;;13.10;9.30;;;21.30;50.10;;;;;;5047189;28;20042;-72
2022/01/25 11:08:12;;;;;;;18.77;12.55;;;21.30;38.50;;;;;;5041620;28;20083;-74
2022/01/25 11:10:51;;;;;;;18.30;12.20;;;21.20;45.40;;;;;;5046384;28;20085;-72
2022/01/25 11:13:35;;;;;;;23.92;13.35;;;21.40;49.50;;;;;;5036733;28;20053;-72
2022/01/25 11:16:11;;;;;;;20.13;12.52;;;21.40;50.30;;;;;;5035920;28;20097;-74
2022/01/25 11:18:38;;;;;;;23.10;13.73;;;21.80;50.50;;;;;;5047668;28;20041;-73
2022/01/25 11:21:08;;;;;;;20.92;12.93;;;22.20;48.90;;;;;;5054780;28;20052;-72
2022/01/25 11:23:36;;;;;;;25.85;15.85;;;22.40;48.00;;;;;;5044044;28;20053;-72
2022/01/25 11:26:05;;;;;;;24.95;14.40;;;22.40;47.80;;;;;;5034851;28;20038;-72
2022/01/25 11:28:32;;;;;;;22.42;12.85;;;22.50;48.10;;;;;;5035726;28;20080;-73
2022/01/25 11:31:06;;;;;;;22.75;13.02;;;22.30;48.80;;;;;;5042017;28;20042;-72
2022/01/25 11:33:35;;;;;;;19.05;12.82;;;22.20;49.50;;;;;;5055862;28;20037;-73
2022/01/25 11:36:10;;;;;;;19.02;12.18;;;21.90;50.60;;;;;;5055039;28;20049;-73
2022/01/25 11:38:41;;;;;;;24.08;13.63;;;21.90;51.70;;;;;;5055106;28;20049;-74
2022/01/25 11:41:09;;;;;;;21.38;13.73;;;21.80;52.30;;;;;;5055285;28;20041;-73
2022/01/25 11:43:36;;;;;;;19.48;11.98;;;21.60;52.50;;;;;;5048250;28;20041;-72
2022/01/25 11:46:06;;;;;;;22.35;12.80;;;21.70;53.90;;;;;;5055042;28;20048;-73
2022/01/25 11:48:42;;;;;;;20.05;10.85;;;21.60;54.30;;;;;;5036791;28;20041;-72
2022/01/25 11:51:17;;;;;;;19.50;12.70;;;21.70;54.90;;;;;;5044108;28;20034;-72
2022/01/25 11:53:48;;;;;;;20.33;12.10;;;21.60;55.00;;;;;;5051500;28;20113;-73
2022/01/25 11:56:15;;;;;;;22.27;13.52;;;21.50;55.60;;;;;;5043598;28;20054;-73
2022/01/25 11:58:42;;;;;;;24.88;14.63;;;21.50;55.20;;;;;;5038663;28;20072;-72
2022/01/25 12:01:22;;;;;;;26.80;13.57;;;21.50;55.10;;;;;;5043654;28;20045;-72
2022/01/25 12:04:01;;;;;;;26.13;14.65;;;21.50;54.60;;;;;;5047532;28;20057;-72
2022/01/25 12:07:00;;;;;;;22.90;13.77;;;21.50;54.40;;;;;;5035772;28;20030;-72
2022/01/25 12:09:44;;;;;;;24.80;13.02;;;21.30;54.20;;;;;;5031609;28;20081;-72
2022/01/25 12:12:12;;;;;;;21.77;13.77;;;21.30;56.00;;;;;;5040053;28;20125;-73
2022/01/25 12:14:52;;;;;;;21.58;13.98;;;21.30;57.20;;;;;;5039354;28;20046;-73
2022/01/25 12:17:25;;;;;;;21.83;13.43;;;21.10;57.10;;;;;;5053337;28;20041;-73
2022/01/25 12:19:57;;;;;;;23.50;12.85;;;21.30;56.80;;;;;;5058409;28;20056;-73
2022/01/25 12:27:51;;;;;;;22.98;12.55;;;21.10;56.90;;;;;;5050359;28;20037;-73
2022/01/25 12:30:28;;;;;;;21.85;12.45;;;21.10;56.70;;;;;;5039537;28;20056;-74
2022/01/25 12:33:17;;;;;;;21.92;12.43;;;21.00;56.90;;;;;;5047501;28;20455;-73
2022/01/25 12:35:52;;;;;;;21.27;12.77;;;21.00;61.40;;;;;;5051738;28;20109;-73
2022/01/25 12:38:43;;;;;;;17.80;10.93;;;21.10;58.10;;;;;;5054026;28;20067;-73
2022/01/25 12:41:20;;;;;;;20.60;10.85;;;21.00;57.80;;;;;;5057841;28;20041;-73
2022/01/25 12:43:53;;;;;;;17.15;10.38;;;21.00;57.60;;;;;;5044655;28;20053;-73
2022/01/25 12:46:26;;;;;;;17.85;10.40;;;21.00;57.20;;;;;;5062685;28;20140;-73
2022/01/25 12:48:59;;;;;;;18.17;10.10;;;21.00;56.70;;;;;;5058356;28;20037;-73
2022/01/25 12:51:27;;;;;;;;;;;21.00;56.40;;;;;;5057927;28;20033;-73
2022/01/25 12:53:55;;;;;;;18.55;10.95;;;21.00;56.20;;;;;;5061980;28;19916;-72
2022/01/25 12:56:33;;;;;;;18.67;10.50;;;21.00;55.90;;;;;;5058809;28;20055;-73
2022/01/25 12:59:10;;;;;;;19.10;10.77;;;21.00;56.10;;;;;;5062698;28;20041;-72
2022/01/25 13:01:38;;;;;;;18.15;10.63;;;21.00;56.00;;;;;;5065177;28;20045;-73
2022/01/25 13:04:07;;;;;;;16.45;9.57;;;20.90;55.60;;;;;;5064245;28;20057;-73
2022/01/25 13:06:48;;;;;;;18.15;9.82;;;21.00;56.10;;;;;;5057655;28;20145;-72
2022/01/25 13:12:17;;;;;;;19.98;11.25;;;21.00;55.20;;;;;;5053836;28;20061;-72
2022/01/25 13:14:49;;;;;;;18.20;10.48;;;20.90;55.10;;;;;;5054088;28;20038;-73
2022/01/25 13:17:19;;;;;;;17.05;9.65;;;20.80;55.40;;;;;;5056847;28;20041;-73
2022/01/25 13:19:54;;;;;;;16.80;10.52;;;20.80;55.40;;;;;;5056900;28;20037;-72
2022/01/25 13:22:36;;;;;;;20.35;10.57;;;20.70;55.20;;;;;;5057021;28;20033;-73
2022/01/25 13:25:26;;;;;;;22.30;11.18;;;20.80;55.40;;;;;;5057660;28;20076;-73
2022/01/25 13:27:57;;;;;;;20.83;10.65;;;20.70;55.60;;;;;;5056387;28;20029;-73
2022/01/25 13:30:41;;;;;;;17.50;10.90;;;20.60;55.60;;;;;;5053295;28;20029;-72
2022/01/25 13:33:14;;;;;;;17.40;10.15;;;20.60;55.60;;;;;;5053536;28;20135;-73
2022/01/25 13:35:47;;;;;;;17.02;10.70;;;20.50;55.60;;;;;;5055288;28;20041;-72
2022/01/25 13:38:22;;;;;;;16.27;10.80;;;20.60;55.60;;;;;;5050135;28;20077;-72
2022/01/25 13:46:42;;;;;;;17.88;9.98;;;20.60;56.40;;;;;;5056617;28;20026;-72
2022/01/25 13:49:11;;;;;;;20.40;10.93;;;20.60;56.50;;;;;;5039641;28;20040;-72
2022/01/25 13:51:53;;;;;;;18.55;9.77;;;20.60;56.40;;;;;;5044562;28;20037;-73
2022/01/25 13:54:24;;;;;;;24.60;10.25;;;20.60;56.10;;;;;;5049293;28;20080;-73
2022/01/25 13:56:50;;;;;;;18.55;9.82;;;20.60;55.90;;;;;;5046546;28;20049;-73
2022/01/25 13:59:17;;;;;;;15.55;9.10;;;20.60;55.60;;;;;;5055384;28;20053;-72
2022/01/25 14:01:43;;;;;;;18.35;10.23;;;20.80;58.80;;;;;;5046335;28;20049;-72
2022/01/25 14:04:14;;;;;;;20.27;11.85;;;21.30;56.20;;;;;;5052582;28;20053;-71
2022/01/25 14:06:43;;;;;;;19.20;10.52;;;21.10;55.20;;;;;;5047685;28;20034;-73
2022/01/25 14:09:25;;;;;;;18.95;11.00;;;21.00;55.30;;;;;;5048615;28;20110;-73
2022/01/25 14:25:38;;;;;;;10.52;7.07;;;20.60;52.80;;;;;;5055481;28;20098;-75
2022/01/25 14:28:11;;;;;;;16.02;6.43;;;20.80;47.20;;;;;;5055298;28;20843;-76
2022/01/25 14:30:41;;;;;;;9.27;6.10;;;20.90;48.90;;;;;;5055522;28;20038;-73
2022/01/25 14:33:16;;;;;;;6.95;4.95;;;21.30;41.90;;;;;;5053212;28;20037;-72
2022/01/25 14:35:43;;;;;;;2.63;1.70;;;21.20;42.70;;;;;;5043398;28;20045;-71
2022/01/25 14:38:25;;;;;;;1.85;1.67;;;21.60;53.60;;;;;;5054242;28;20093;-72
2022/01/25 14:41:10;;;;;;;1.30;1.23;;;21.70;51.20;;;;;;5046268;28;20060;-70
2022/01/25 14:43:46;;;;;;;1.33;1.27;;;21.80;49.10;;;;;;5056157;28;20064;-71
2022/01/25 14:46:20;;;;;;;3.08;1.88;;;21.90;47.30;;;;;;5051557;28;20044;-72
2022/01/25 14:49:07;;;;;;;4.88;3.75;;;21.90;46.60;;;;;;5043874;28;20044;-70
2022/01/25 14:51:36;;;;;;;15.77;7.47;;;22.10;47.20;;;;;;5048541;28;20037;-72
2022/01/25 14:54:03;;;;;;;14.25;7.53;;;22.00;45.10;;;;;;5056541;28;20101;-72
2022/01/25 14:56:36;;;;;;;18.15;6.85;;;22.00;44.60;;;;;;5050184;28;20056;-71
2022/01/25 15:01:59;;;;;;;20.95;10.52;;;22.00;44.60;;;;;;5047741;28;20045;-71
2022/01/25 15:04:27;;;;;;;14.15;8.90;;;22.10;44.30;;;;;;5054310;28;20131;-70